Stations météo

réclame
Mon MeteoGroup
Dourbes, Belgique (6455): Température de l'air & dewpoint: 18.08.2019 00:00:00 - 24.08.2019 00:00:00 (CEST)Dourbes, Belgique (6455): Vitesse du vent & gusts: 18.08.2019 00:00:00 - 24.08.2019 00:00:00 (CEST)Dourbes, Belgique (6455): Direction du vent: 18.08.2019 00:00:00 - 24.08.2019 00:00:00 (CEST)Dourbes, Belgique (6455): reduced air pressure: 18.08.2019 00:00:00 - 24.08.2019 00:00:00 (CEST)Dourbes, Belgique (6455): Ensoleillement: 18.08.2019 00:00:00 - 24.08.2019 00:00:00 (CEST)Dourbes, Belgique (6455): Quantités de précipitations: 18.08.2019 00:00:00 - 24.08.2019 00:00:00 (CEST)
Date & Time tt [°C] td [°C] ff [km/h] ff [knt] fx [km/h] fx [knt] dd ppp [hPa] sd [min] rr [mm]
24.08.2019 00:00:00 15,9 12,9 4 2 7 4 NNE 1021,8 0 0,0
23.08.2019 23:00:00 18,1 12,8 4 2 10 5 E 1021,7 0 0,0
23.08.2019 22:00:00 20,6 13,5 5 3 10 6 NNE 1021,7 0 0,0
23.08.2019 21:00:00 22,3 13,2 6 3 15 8 NNE 1021,5 0 0,0
23.08.2019 20:00:00 24,0 11,8 4 2 10 5 N 1021,0 44 0,0
23.08.2019 19:00:00 25,7 9,9 6 3 16 9 NE 1021,1 60 0,0
23.08.2019 18:00:00 26,6 10,3 5 3 14 8 NNE 1021,3 60 0,0
23.08.2019 17:00:00 26,5 10,1 7 4 14 8 ENE 1021,7 60 0,0
23.08.2019 16:00:00 26,5 12,1 8 4 16 9 NNW 1022,1 60 0,0
23.08.2019 15:00:00 25,8 10,9 8 5 19 10 N 1022,7 60 0,0
23.08.2019 14:00:00 25,5 12,6 7 4 17 9 N 1023,1 60 0,0
23.08.2019 13:00:00 23,9 12,8 5 3 14 8 N 1023,8 60 0,0
23.08.2019 12:00:00 22,6 14,2 8 4 14 7 E 1024,3 60 0,0
23.08.2019 11:00:00 19,4 13,8 5 3 10 6 ENE 1025,0 60 0,0
23.08.2019 10:00:00 16,3 13,5 4 2 8 4 E 1025,4 60 0,0
23.08.2019 09:00:00 11,7 11,5 0 0 3 2 N 1026,0 60 0,0
23.08.2019 08:00:00 9,9 9,9 0 0 4 2 N 1026,0 35 0,0
23.08.2019 07:00:00 8,7 8,7 0 0 4 2 N 1026,1 0 0,0
23.08.2019 06:00:00 9,5 9,5 4 2 5 3 E 1026,1 0 0,0
23.08.2019 05:00:00 9,8 9,8 0 0 3 2 N 1026,2 0 0,0
23.08.2019 04:00:00 10,0 9,7 0 0 4 2 N 1026,2 0 0,0
23.08.2019 03:00:00 10,9 10,6 0 0 3 1 N 1026,1 0 0,0
23.08.2019 02:00:00 11,4 10,9 0 0 3 1 N 1026,4 0 0,0
23.08.2019 01:00:00 12,1 11,0 4 2 3 2 SSE 1026,5 0 0,0
23.08.2019 00:00:00 13,2 11,3 0 0 3 2 N 1026,1 0 0,0
22.08.2019 23:00:00 14,8 11,4 0 0 5 3 N 1025,8 0 0,0
22.08.2019 22:00:00 16,9 11,2 4 2 8 4 S 1025,5 0 0,0
22.08.2019 21:00:00 19,5 10,8 5 3 9 5 NNW 1024,5 0 0,0
22.08.2019 20:00:00 21,6 11,1 7 4 15 8 NW 1024,0 46 0,0
22.08.2019 19:00:00 23,6 11,0 5 3 13 7 WNW 1023,7 60 0,0
22.08.2019 18:00:00 24,4 10,1 5 3 11 6 W 1023,6 60 0,0
22.08.2019 17:00:00 24,9 11,1 5 3 14 8 W 1023,7 60 0,0
22.08.2019 16:00:00 24,1 11,1 6 4 16 9 WNW 1023,9 60 0,0
22.08.2019 15:00:00 24,2 11,2 5 3 14 8 W 1024,3 60 0,0
22.08.2019 14:00:00 22,8 10,8 7 4 22 12 N 1024,8 60 0,0
22.08.2019 13:00:00 22,6 12,2 4 2 15 8 W 1025,0 60 0,0
22.08.2019 12:00:00 21,9 12,6 6 4 14 7 NW 1025,3 60 0,0
22.08.2019 11:00:00 19,2 13,1 4 2 7 4 S 1025,6 60 0,0
22.08.2019 10:00:00 14,7 13,0 4 2 5 3 SSW 1026,0 60 0,0
22.08.2019 09:00:00 10,0 10,0 4 2 4 2 SE 1026,4 60 0,0
22.08.2019 08:00:00 8,0 8,0 0 0 4 2 N 1026,4 35 0,0
22.08.2019 07:00:00 7,3 7,3 0 0 3 1 N 1025,9 0 0,0
22.08.2019 06:00:00 7,9 7,9 0 0 3 1 N 1025,8 0 0,0
22.08.2019 05:00:00 8,7 8,7 0 0 3 2 N 1025,7 0 0,0
22.08.2019 04:00:00 9,1 9,1 4 2 5 3 N 1025,8 0 0,0
22.08.2019 03:00:00 9,9 9,8 4 2 7 4 NNE 1025,8 0 0,0
22.08.2019 02:00:00 10,3 10,1 4 2 4 2 SE 1026,1 0 0,0
22.08.2019 01:00:00 10,8 10,3 0 0 4 2 N 1026,2 0 0,0
22.08.2019 00:00:00 11,8 11,0 0 0 3 2 N 1026,1 0 0,0
21.08.2019 23:00:00 13,1 11,3 0 0 3 2 N 1026,2 0 0,0
21.08.2019 22:00:00 14,6 10,9 0 0 3 2 N 1026,1 0 0,0
21.08.2019 21:00:00 17,2 11,7 0 0 4 2 N 1025,5 0 0,0
21.08.2019 20:00:00 19,7 10,7 0 0 8 4 N 1025,0 47 0,0
21.08.2019 19:00:00 21,1 10,6 4 2 10 5 WNW 1025,0 60 0,0
21.08.2019 18:00:00 21,4 10,6 4 2 10 5 NNE 1025,3 60 0,0
21.08.2019 17:00:00 21,4 9,8 4 2 13 7 N 1025,6 60 0,0
21.08.2019 16:00:00 21,5 10,2 4 2 14 7 W 1025,9 60 0,0
21.08.2019 15:00:00 21,0 9,9 5 3 14 8 SSW 1026,1 58 0,0
21.08.2019 14:00:00 21,0 11,6 4 2 14 8 SSE 1026,6 60 0,0
21.08.2019 13:00:00 19,3 10,5 6 3 12 7 NW 1027,4 60 0,0
21.08.2019 12:00:00 18,5 10,4 4 2 11 6 WNW 1027,8 60 0,0
21.08.2019 11:00:00 16,4 11,2 4 2 7 4 S 1028,2 60 0,0
21.08.2019 10:00:00 13,5 11,5 4 2 6 3 SE 1028,5 60 0,0
21.08.2019 09:00:00 9,9 9,9 4 2 4 2 SE 1029,0 60 0,0
21.08.2019 08:00:00 8,0 8,0 4 2 4 2 E 1028,8 35 0,0
21.08.2019 07:00:00 7,0 7,0 4 2 4 2 ESE 1028,5 0 0,0
21.08.2019 06:00:00 7,2 7,2 0 0 3 2 N 1028,2 0 0,0
21.08.2019 05:00:00 7,7 7,7 0 0 4 2 N 1028,1 0 0,0
21.08.2019 04:00:00 8,4 8,2 0 0 4 2 N 1028,1 0 0,0
21.08.2019 03:00:00 9,0 8,7 0 0 4 2 N 1028,0 0 0,0
21.08.2019 02:00:00 9,5 8,8 4 2 4 2 SSE 1027,9 0 0,0
21.08.2019 01:00:00 10,4 9,4 4 2 4 2 S 1027,7 0 0,0
21.08.2019 00:00:00 11,4 9,7 4 2 5 3 SSW 1027,3 0 0,0
20.08.2019 23:00:00 12,4 9,1 4 2 5 3 SSW 1026,8 0 0,0
20.08.2019 22:00:00 14,0 8,8 4 2 9 5 SW 1026,3 0 0,0
20.08.2019 21:00:00 16,2 8,8 6 4 13 7 WNW 1025,3 0 0,0
20.08.2019 20:00:00 18,0 8,9 7 4 17 9 WNW 1024,6 53 0,0
20.08.2019 19:00:00 19,5 9,2 7 4 24 13 W 1023,9 59 0,0
20.08.2019 18:00:00 20,2 8,5 12 7 23 12 WSW 1023,3 48 0,0
20.08.2019 17:00:00 20,0 9,8 9 5 22 12 SW 1023,4 50 0,0
20.08.2019 16:00:00 19,5 10,3 10 6 21 11 W 1023,2 37 0,0
20.08.2019 15:00:00 20,0 10,0 10 5 23 12 SW 1022,9 39 0,0
20.08.2019 14:00:00 20,0 10,6 11 6 24 13 WSW 1022,6 51 0,0
20.08.2019 13:00:00 18,0 10,3 11 6 22 12 SW 1023,2 58 0,0
20.08.2019 12:00:00 17,5 12,2 10 5 23 12 SW 1023,2 60 0,0
20.08.2019 11:00:00 15,6 13,3 6 3 16 9 WSW 1023,0 60 0,0
20.08.2019 10:00:00 13,1 12,7 4 2 7 4 S 1022,8 60 0,0
20.08.2019 09:00:00 10,1 10,1 4 2 4 2 S 1023,3 60 0,0
20.08.2019 08:00:00 8,4 8,4 4 2 3 2 SSW 1022,8 21 0,0
20.08.2019 07:00:00 8,5 8,5 4 2 5 3 ESE 1022,3 0 0,0
20.08.2019 06:00:00 8,3 8,3 4 2 4 2 SSE 1022,1 0 0,0
20.08.2019 05:00:00 8,8 8,8 4 2 4 2 S 1021,8 0 0,0
20.08.2019 04:00:00 9,1 9,1 0 0 4 2 N 1021,7 0 0,0
20.08.2019 03:00:00 9,5 9,4 0 0 4 2 N 1021,5 0 0,0
20.08.2019 02:00:00 10,4 10,2 0 0 4 2 N 1021,5 0 0,0
20.08.2019 01:00:00 10,8 10,3 4 2 4 2 SE 1021,7 0 0,0
20.08.2019 00:00:00 11,6 10,5 0 0 4 2 N 1021,0 0 0,0
19.08.2019 23:00:00 13,1 10,7 4 2 7 4 ENE 1020,3 0 0,0
19.08.2019 22:00:00 15,0 10,7 5 3 17 9 W 1019,8 0 0,0
19.08.2019 21:00:00 16,7 10,5 6 4 14 8 W 1018,9 0 0,0
19.08.2019 20:00:00 18,0 10,0 7 4 23 12 WSW 1018,1 16 0,0
19.08.2019 19:00:00 19,1 9,9 6 4 23 12 WSW 1017,8 34 0,0
19.08.2019 18:00:00 20,4 9,9 12 6 32 17 SW 1017,6 56 0,0
19.08.2019 17:00:00 20,8 10,0 14 7 33 18 SW 1017,5 58 0,0
19.08.2019 16:00:00 19,3 10,6 13 7 31 17 SW 1017,5 41 0,0
19.08.2019 15:00:00 19,5 12,2 14 8 27 15 SW 1017,3 18 0,0
19.08.2019 14:00:00 18,3 10,3 14 8 32 17 SW 1017,3 37 0,0
19.08.2019 13:00:00 19,2 11,7 13 7 32 17 SW 1017,0 57 0,0
19.08.2019 12:00:00 18,0 11,2 18 10 27 15 S 1016,6 60 0,0
19.08.2019 11:00:00 15,7 12,2 13 7 24 13 SW 1016,7 59 0,0
19.08.2019 10:00:00 15,5 12,8 10 5 20 11 SW 1016,1 60 0,0
19.08.2019 09:00:00 13,4 12,5 9 5 18 10 SW 1016,2 60 0,0
19.08.2019 08:00:00 11,2 11,1 7 4 13 7 SW 1016,1 25 0,0
19.08.2019 07:00:00 10,3 10,2 6 3 13 7 WSW 1015,7 0 0,0
19.08.2019 06:00:00 9,9 9,9 6 4 11 6 SW 1015,3 0 0,0
19.08.2019 05:00:00 10,0 10,0 6 4 10 6 SW 1014,8 0 0,0
19.08.2019 04:00:00 10,3 10,3 5 3 9 5 SW 1014,7 0 0,0
19.08.2019 03:00:00 10,4 10,4 4 2 10 5 SW 1014,3 0 0,0
19.08.2019 02:00:00 10,9 10,9 7 4 12 7 SW 1014,1 0 0,0
19.08.2019 01:00:00 11,2 11,1 0 0 5 3 N 1013,3 0 0,0
19.08.2019 00:00:00 12,2 11,9 4 2 6 3 SSE 1012,6 0 0,0
18.08.2019 23:00:00 12,7 11,9 4 2 6 3 WNW 1011,9 0 0,0
18.08.2019 22:00:00 14,2 11,7 4 2 22 12 SW 1011,5 0 0,0
18.08.2019 21:00:00 15,9 13,8 9 5 22 12 WNW 1010,6 0 0,0
18.08.2019 20:00:00 16,7 14,6 7 4 25 13 SW 1009,7 16 0,0
18.08.2019 19:00:00 17,5 15,0 8 4 18 10 SSW 1009,5 43 0,0
18.08.2019 18:00:00 17,4 15,0 8 4 19 10 WSW 1009,3 24 0,0
18.08.2019 17:00:00 16,7 15,5 10 5 26 14 WSW 1009,1 0 0,0
18.08.2019 16:00:00 16,6 15,9 15 8 31 17 W 1008,2 0 0,0
18.08.2019 15:00:00 16,8 16,5 14 8 29 16 W 1006,9 0 0,0
18.08.2019 14:00:00 17,1 17,1 11 6 25 14 SSW 1005,8 0 1,5
18.08.2019 13:00:00 17,1 17,0 8 4 26 14 SW 1005,6 0 0,7
18.08.2019 12:00:00 18,0 17,6 13 7 45 25 W 1004,3 0 0,1
18.08.2019 11:00:00 17,9 17,6 24 13 46 25 SSW 1003,3 0 0,1
18.08.2019 10:00:00 17,6 17,6 21 12 43 23 SSW 1002,9 0 0,4
18.08.2019 09:00:00 17,1 17,1 20 11 34 19 S 1003,1 0 0,6
18.08.2019 08:00:00 15,7 15,7 11 6 22 12 S 1003,8 0 0,5
18.08.2019 07:00:00 14,5 14,5 6 4 11 6 E 1005,1 0 0,5
18.08.2019 06:00:00 14,5 14,5 0 0 6 3 N 1006,3 0 0,5
18.08.2019 05:00:00 14,1 14,1 0 0 6 4 N 1007,1 0 0,0
18.08.2019 04:00:00 14,1 14,1 4 2 5 3 E 1007,6 0 0,2
18.08.2019 03:00:00 14,1 14,0 4 2 16 9 S 1008,3 0 0,4
18.08.2019 02:00:00 14,9 14,9 11 6 22 12 WNW 1008,1 0 4,0
18.08.2019 01:00:00 16,6 16,6 6 3 14 8 W 1007,9 0 7,8
18.08.2019 00:00:00 17,2 17,2 9 5 16 9 S 1007,5 0 0,7

tt = Température de l'air
td = dewpoint
ff = Vitesse du vent
fx = gusts
dd = Direction du vent
ppp = reduced air pressure
sd = Ensoleillement
rr = Quantités de précipitations

stations d'obs. à proximité